createdAt,value
2019-03-30T00:01:01.353Z,91.70
2019-03-30T00:03:29.793Z,91.70
2019-03-30T00:05:58.190Z,91.80
2019-03-30T00:08:26.557Z,91.80
2019-03-30T00:10:54.917Z,91.90
2019-03-30T00:13:23.254Z,92.00
2019-03-30T00:15:51.657Z,92.10
2019-03-30T00:18:20.045Z,92.30
2019-03-30T00:20:48.342Z,92.30
2019-03-30T00:23:16.784Z,92.30
2019-03-30T00:25:45.155Z,92.40
2019-03-30T00:28:13.550Z,92.20
2019-03-30T00:30:41.961Z,92.30
2019-03-30T00:33:10.361Z,92.30
2019-03-30T00:35:38.725Z,92.30
2019-03-30T00:38:07.113Z,92.20
2019-03-30T00:40:36.057Z,92.40
2019-03-30T00:43:04.442Z,92.20
2019-03-30T00:45:32.861Z,92.30
2019-03-30T00:48:01.163Z,92.60
2019-03-30T00:50:29.537Z,92.40
2019-03-30T00:52:57.849Z,92.40
2019-03-30T00:55:26.249Z,92.40
2019-03-30T00:57:55.006Z,92.40
2019-03-30T01:00:23.399Z,92.50
2019-03-30T01:02:51.777Z,92.50
2019-03-30T01:05:20.194Z,92.70
2019-03-30T01:07:48.558Z,92.70
2019-03-30T01:10:17.028Z,92.90
2019-03-30T01:12:45.535Z,92.80
2019-03-30T01:15:14.114Z,92.80
2019-03-30T01:17:42.546Z,93.10
2019-03-30T01:20:10.898Z,92.90
2019-03-30T01:22:39.266Z,92.90
2019-03-30T01:25:07.898Z,93.00
2019-03-30T01:27:36.252Z,93.00
2019-03-30T01:30:05.310Z,93.00
2019-03-30T01:32:35.133Z,93.20
2019-03-30T01:35:04.597Z,93.20
2019-03-30T01:37:32.972Z,93.20
2019-03-30T01:40:01.372Z,93.20
2019-03-30T01:42:29.758Z,93.30
2019-03-30T01:44:58.141Z,93.30
2019-03-30T01:47:26.523Z,93.40
2019-03-30T01:49:54.813Z,93.40
2019-03-30T01:52:23.269Z,93.50
2019-03-30T01:54:51.677Z,93.40
2019-03-30T01:57:20.041Z,93.50
2019-03-30T01:59:48.501Z,93.60
2019-03-30T02:02:16.949Z,93.70
2019-03-30T02:04:45.419Z,93.60
2019-03-30T02:07:13.787Z,93.70
2019-03-30T02:09:42.183Z,93.80
2019-03-30T02:12:10.546Z,93.70
2019-03-30T02:14:38.932Z,93.80
2019-03-30T02:17:07.344Z,93.80
2019-03-30T02:19:35.726Z,93.80
2019-03-30T02:22:04.126Z,94.00
2019-03-30T02:24:32.524Z,93.90
2019-03-30T02:27:00.887Z,94.00
2019-03-30T02:29:29.254Z,93.90
2019-03-30T02:31:57.643Z,94.00
2019-03-30T02:34:26.091Z,94.10
2019-03-30T02:36:54.483Z,94.10
2019-03-30T02:39:22.931Z,94.20
2019-03-30T02:41:51.261Z,94.30
2019-03-30T02:44:19.626Z,94.30
2019-03-30T02:46:48.021Z,94.40
2019-03-30T02:49:16.406Z,94.40
2019-03-30T02:51:44.954Z,94.30
2019-03-30T02:54:13.386Z,94.30
2019-03-30T02:56:41.780Z,94.30
2019-03-30T02:59:10.141Z,94.40
2019-03-30T03:01:38.521Z,94.40
2019-03-30T03:04:06.893Z,94.60
2019-03-30T03:06:35.227Z,94.60
2019-03-30T03:09:05.609Z,94.40
2019-03-30T03:11:33.974Z,94.40
2019-03-30T03:14:03.148Z,94.50
2019-03-30T03:16:31.515Z,94.60
2019-03-30T03:18:59.883Z,94.70
2019-03-30T03:21:28.279Z,94.60
2019-03-30T03:23:56.715Z,94.50
2019-03-30T03:26:25.180Z,94.60
2019-03-30T03:28:53.550Z,94.70
2019-03-30T03:31:21.947Z,94.90
2019-03-30T03:33:50.338Z,94.80
2019-03-30T03:36:18.934Z,94.70
2019-03-30T03:38:47.257Z,94.80
2019-03-30T03:41:15.635Z,94.90
2019-03-30T03:43:44.014Z,94.70
2019-03-30T03:46:12.460Z,94.60
2019-03-30T03:48:40.839Z,94.70
2019-03-30T03:51:24.970Z,94.60
2019-03-30T03:53:40.035Z,94.60
2019-03-30T03:56:08.489Z,94.60
2019-03-30T03:58:36.880Z,94.50
2019-03-30T04:01:05.247Z,94.50
2019-03-30T04:03:33.852Z,94.30
2019-03-30T04:06:05.214Z,94.30
2019-03-30T04:08:36.832Z,94.20
2019-03-30T04:11:05.347Z,94.20
2019-03-30T04:13:33.713Z,94.20
2019-03-30T04:16:02.078Z,94.40
2019-03-30T04:18:30.491Z,94.10
2019-03-30T04:20:58.879Z,94.20
2019-03-30T04:23:27.248Z,94.10
2019-03-30T04:25:55.651Z,94.10
2019-03-30T04:28:24.025Z,94.20
2019-03-30T04:30:52.450Z,94.10
2019-03-30T04:33:20.840Z,94.10
2019-03-30T04:35:49.201Z,94.20
2019-03-30T04:38:18.062Z,94.10
2019-03-30T04:40:46.453Z,94.20
2019-03-30T04:43:14.840Z,94.10
2019-03-30T04:45:43.217Z,94.10
2019-03-30T04:48:11.627Z,94.10
2019-03-30T04:50:40.070Z,94.00
2019-03-30T04:53:08.446Z,94.20
2019-03-30T04:55:36.947Z,94.10
2019-03-30T04:58:08.904Z,94.10
2019-03-30T05:00:35.358Z,94.20
2019-03-30T05:03:03.744Z,94.20
2019-03-30T05:05:32.129Z,94.20
2019-03-30T05:08:00.579Z,94.20
2019-03-30T05:10:28.974Z,94.10
2019-03-30T05:12:57.350Z,94.10
2019-03-30T05:15:25.728Z,94.20
2019-03-30T05:17:54.105Z,94.10
2019-03-30T05:20:22.490Z,94.00
2019-03-30T05:22:51.422Z,93.90
2019-03-30T05:25:19.866Z,93.80
2019-03-30T05:27:48.222Z,93.90
2019-03-30T05:30:16.710Z,94.00
2019-03-30T05:32:45.104Z,93.80
2019-03-30T05:35:13.910Z,93.70
2019-03-30T05:37:42.431Z,93.80
2019-03-30T05:40:10.765Z,93.80
2019-03-30T05:42:39.133Z,93.80
2019-03-30T05:45:07.593Z,93.70
2019-03-30T05:47:35.957Z,93.70
2019-03-30T05:50:06.199Z,93.50
2019-03-30T05:52:35.758Z,93.40
2019-03-30T05:55:04.533Z,93.50
2019-03-30T05:57:33.031Z,93.20
2019-03-30T06:00:01.497Z,93.30
2019-03-30T06:02:29.857Z,93.30
2019-03-30T06:04:58.671Z,93.30
2019-03-30T06:07:27.209Z,93.10
2019-03-30T06:09:55.598Z,93.10
2019-03-30T06:12:24.031Z,93.00
2019-03-30T06:14:52.422Z,92.70
2019-03-30T06:17:20.871Z,92.90
2019-03-30T06:19:49.361Z,92.90
2019-03-30T06:22:17.725Z,92.60
2019-03-30T06:24:46.112Z,92.90
2019-03-30T06:27:14.507Z,93.00
2019-03-30T06:29:42.886Z,92.80
2019-03-30T06:32:11.307Z,92.80
2019-03-30T06:34:39.605Z,92.90
2019-03-30T06:37:08.014Z,93.00
2019-03-30T06:39:37.164Z,92.90
2019-03-30T06:42:05.645Z,93.10
2019-03-30T06:44:34.049Z,93.10
2019-03-30T06:47:02.441Z,93.10
2019-03-30T06:49:30.838Z,93.40
2019-03-30T06:51:59.251Z,93.50
2019-03-30T06:54:28.021Z,93.50
2019-03-30T06:56:56.412Z,93.30
2019-03-30T06:59:24.798Z,93.20
2019-03-30T07:01:53.175Z,93.40
2019-03-30T07:04:21.550Z,93.20
2019-03-30T07:06:49.914Z,93.20
2019-03-30T07:09:18.866Z,93.60
2019-03-30T07:11:52.942Z,93.20
2019-03-30T07:14:36.217Z,93.10
2019-03-30T07:17:08.790Z,92.90
2019-03-30T07:19:40.480Z,93.00
2019-03-30T07:22:11.392Z,92.70
2019-03-30T07:24:47.258Z,92.50
2019-03-30T07:27:17.308Z,92.80
2019-03-30T07:29:57.261Z,92.80
2019-03-30T07:32:28.580Z,92.70
2019-03-30T07:34:59.769Z,92.60
2019-03-30T07:37:28.177Z,92.70
2019-03-30T07:39:56.547Z,92.60
2019-03-30T07:42:24.979Z,92.90
2019-03-30T07:44:53.365Z,92.90
2019-03-30T07:47:22.022Z,92.90
2019-03-30T07:49:50.398Z,93.10
2019-03-30T07:52:18.830Z,92.60
2019-03-30T07:54:47.249Z,92.60
2019-03-30T07:57:17.376Z,92.70
2019-03-30T07:59:45.676Z,93.00
2019-03-30T08:02:14.118Z,92.70
2019-03-30T08:04:42.500Z,92.70
2019-03-30T08:07:10.859Z,92.30
2019-03-30T08:09:40.251Z,92.30
2019-03-30T08:12:08.618Z,92.30
2019-03-30T08:14:36.940Z,92.20
2019-03-30T08:17:05.417Z,92.50
2019-03-30T08:19:33.779Z,92.70
2019-03-30T08:22:02.103Z,92.90
2019-03-30T08:24:30.600Z,92.90
2019-03-30T08:26:59.034Z,92.80
2019-03-30T08:29:27.335Z,92.80
2019-03-30T08:31:55.739Z,92.40
2019-03-30T08:34:24.131Z,92.50
2019-03-30T08:36:52.545Z,92.30
2019-03-30T08:39:21.029Z,92.10
2019-03-30T08:41:49.417Z,92.50
2019-03-30T08:44:17.803Z,92.50
2019-03-30T08:46:46.171Z,92.10
2019-03-30T08:49:14.620Z,92.50
2019-03-30T08:51:43.000Z,92.20
2019-03-30T08:54:11.437Z,91.90
2019-03-30T08:56:39.948Z,91.80
2019-03-30T08:59:08.355Z,92.10
2019-03-30T09:01:36.843Z,92.30
2019-03-30T09:04:05.178Z,91.90
2019-03-30T09:06:33.490Z,92.00
2019-03-30T09:09:01.867Z,91.70
2019-03-30T09:11:30.248Z,91.80
2019-03-30T09:13:58.707Z,91.90
2019-03-30T09:16:27.000Z,91.90
2019-03-30T09:18:55.377Z,91.60
2019-03-30T09:21:23.663Z,91.40
2019-03-30T09:23:52.073Z,91.50
2019-03-30T09:26:20.415Z,91.50
2019-03-30T09:28:48.829Z,91.30
2019-03-30T09:31:17.217Z,91.00
2019-03-30T09:33:45.710Z,91.60
2019-03-30T09:36:14.081Z,91.70
2019-03-30T09:38:42.395Z,92.20
2019-03-30T09:41:10.781Z,92.50
2019-03-30T09:43:39.148Z,92.30
2019-03-30T09:46:07.663Z,92.40
2019-03-30T09:48:36.034Z,92.50
2019-03-30T09:51:04.510Z,92.30
2019-03-30T09:53:32.878Z,92.70
2019-03-30T09:56:01.337Z,92.50
2019-03-30T09:58:29.779Z,92.50
2019-03-30T10:00:58.224Z,92.40
2019-03-30T10:03:26.590Z,92.10
2019-03-30T10:05:54.954Z,92.30
2019-03-30T10:08:23.348Z,92.20
2019-03-30T10:10:51.714Z,92.10
2019-03-30T10:13:20.093Z,91.90
2019-03-30T10:15:48.497Z,91.60
2019-03-30T10:18:16.909Z,91.10
2019-03-30T10:20:45.995Z,91.20
2019-03-30T10:23:14.419Z,90.80
2019-03-30T10:25:42.803Z,91.00
2019-03-30T10:28:11.205Z,91.00
2019-03-30T10:30:39.643Z,90.80
2019-03-30T10:33:07.995Z,90.80
2019-03-30T10:35:36.361Z,90.60
2019-03-30T10:38:05.010Z,90.70
2019-03-30T10:40:33.375Z,90.60
2019-03-30T10:43:01.755Z,90.70
2019-03-30T10:45:30.254Z,90.60
2019-03-30T10:47:58.612Z,90.10
2019-03-30T10:50:26.994Z,90.10
2019-03-30T10:52:55.374Z,90.00
2019-03-30T10:55:23.770Z,90.50
2019-03-30T10:57:52.142Z,90.30
2019-03-30T11:00:37.142Z,90.30
2019-03-30T11:03:05.507Z,89.50
2019-03-30T11:05:33.906Z,89.90
2019-03-30T11:08:02.333Z,90.00
2019-03-30T11:10:30.708Z,89.30
2019-03-30T11:12:59.075Z,89.00
2019-03-30T11:15:27.458Z,88.40
2019-03-30T11:17:55.877Z,88.20
2019-03-30T11:20:24.173Z,88.00
2019-03-30T11:22:52.541Z,87.60
2019-03-30T11:25:20.911Z,86.00
2019-03-30T11:27:49.974Z,87.00
2019-03-30T11:30:18.336Z,86.60
2019-03-30T11:32:46.741Z,86.70
2019-03-30T11:35:15.173Z,86.00
2019-03-30T11:37:43.613Z,84.80
2019-03-30T11:40:12.095Z,85.20
2019-03-30T11:42:40.517Z,84.10
2019-03-30T11:45:08.978Z,84.00
2019-03-30T11:47:37.429Z,83.20
2019-03-30T11:50:06.934Z,82.70
2019-03-30T11:52:35.383Z,82.90
2019-03-30T11:55:06.061Z,81.80
2019-03-30T11:57:34.385Z,81.80
2019-03-30T12:00:03.137Z,81.70
2019-03-30T12:02:31.540Z,80.00
2019-03-30T12:04:59.994Z,79.00
2019-03-30T12:07:28.454Z,79.50
2019-03-30T12:09:56.846Z,79.80
2019-03-30T12:12:25.174Z,80.00
2019-03-30T12:14:53.576Z,80.30
2019-03-30T12:17:22.040Z,78.60
2019-03-30T12:19:50.476Z,77.40
2019-03-30T12:22:18.913Z,76.80
2019-03-30T12:24:47.273Z,73.30
2019-03-30T12:27:15.679Z,67.60
2019-03-30T12:29:44.662Z,65.20
2019-03-30T12:32:13.237Z,64.10
2019-03-30T12:34:41.617Z,61.60
2019-03-30T12:37:10.081Z,63.80
2019-03-30T12:39:38.444Z,68.10
2019-03-30T12:42:06.877Z,69.10
2019-03-30T12:44:35.294Z,71.40
2019-03-30T12:47:04.094Z,75.60
2019-03-30T12:49:32.456Z,79.10
2019-03-30T12:52:00.882Z,80.80
2019-03-30T12:54:29.335Z,81.90
2019-03-30T12:56:57.778Z,82.60
2019-03-30T12:59:26.219Z,82.90
2019-03-30T13:01:54.546Z,84.20
2019-03-30T13:04:22.945Z,84.50
2019-03-30T13:06:51.321Z,85.20
2019-03-30T13:09:19.757Z,85.90
2019-03-30T13:11:48.137Z,86.90
2019-03-30T13:14:16.521Z,86.60
2019-03-30T13:16:44.821Z,87.10
2019-03-30T13:19:13.215Z,88.60
2019-03-30T13:21:52.075Z,88.00
2019-03-30T13:24:11.724Z,87.70
2019-03-30T13:26:41.103Z,88.60
2019-03-30T13:29:09.636Z,88.60
2019-03-30T13:31:38.025Z,89.00
2019-03-30T13:34:06.462Z,89.40
2019-03-30T13:36:39.158Z,89.40
2019-03-30T13:39:08.297Z,89.40
2019-03-30T13:41:36.888Z,89.70
2019-03-30T13:44:06.138Z,89.50
2019-03-30T13:46:34.551Z,88.90
2019-03-30T13:49:03.265Z,89.20
2019-03-30T13:51:31.741Z,89.40
2019-03-30T13:54:00.108Z,89.50
2019-03-30T13:56:28.557Z,89.60
2019-03-30T13:58:56.925Z,90.00
2019-03-30T14:01:25.401Z,90.10
2019-03-30T14:03:53.783Z,90.10
2019-03-30T14:06:22.384Z,90.10
2019-03-30T14:08:50.770Z,90.20
2019-03-30T14:11:20.109Z,90.20
2019-03-30T14:13:48.514Z,90.30
2019-03-30T14:16:17.026Z,90.20
2019-03-30T14:18:45.328Z,90.20
2019-03-30T14:21:13.774Z,90.50
2019-03-30T14:23:43.551Z,90.30
2019-03-30T14:26:12.183Z,90.40
2019-03-30T14:28:40.548Z,90.40
2019-03-30T14:31:08.867Z,90.30
2019-03-30T14:33:37.225Z,90.70
2019-03-30T14:36:05.589Z,90.50
2019-03-30T14:38:33.893Z,90.20
2019-03-30T14:41:03.824Z,90.00
2019-03-30T14:43:32.501Z,89.90
2019-03-30T14:46:00.855Z,90.00
2019-03-30T14:48:29.223Z,89.90
2019-03-30T14:50:58.094Z,89.80
2019-03-30T14:53:26.592Z,89.60
2019-03-30T14:55:55.013Z,89.50
2019-03-30T14:58:23.475Z,89.40
2019-03-30T15:00:51.840Z,89.40
2019-03-30T15:03:20.226Z,90.00
2019-03-30T15:05:48.785Z,89.70
2019-03-30T15:08:17.177Z,90.00
2019-03-30T15:10:45.600Z,90.00
2019-03-30T15:13:14.066Z,90.00
2019-03-30T15:15:42.364Z,90.20
2019-03-30T15:18:10.835Z,90.10
2019-03-30T15:20:39.274Z,90.10
2019-03-30T15:23:07.646Z,90.00
2019-03-30T15:25:36.035Z,90.00
2019-03-30T15:28:04.473Z,90.20
2019-03-30T15:30:32.814Z,90.20
2019-03-30T15:33:03.359Z,90.20
2019-03-30T15:35:31.674Z,90.30
2019-03-30T15:38:00.024Z,90.50
2019-03-30T15:40:28.531Z,90.50
2019-03-30T15:42:56.967Z,90.40
2019-03-30T15:45:25.387Z,90.20
2019-03-30T15:47:53.759Z,90.60
2019-03-30T15:50:22.247Z,90.30
2019-03-30T15:52:50.713Z,90.50
2019-03-30T15:55:19.082Z,90.60
2019-03-30T15:57:47.578Z,90.50
2019-03-30T16:00:16.150Z,90.50
2019-03-30T16:02:44.519Z,90.50
2019-03-30T16:05:15.430Z,90.60
2019-03-30T16:07:43.022Z,90.50
2019-03-30T16:10:12.000Z,90.60
2019-03-30T16:12:40.392Z,90.50
2019-03-30T16:15:09.138Z,90.70
2019-03-30T16:17:37.572Z,90.90
2019-03-30T16:20:07.538Z,91.20
2019-03-30T16:22:35.962Z,91.20
2019-03-30T16:25:05.842Z,91.40
2019-03-30T16:27:34.257Z,91.50
2019-03-30T16:30:02.791Z,91.60
2019-03-30T16:32:32.068Z,91.60
2019-03-30T16:35:00.485Z,91.70
2019-03-30T16:37:28.919Z,91.80
2019-03-30T16:39:57.347Z,91.80
2019-03-30T16:42:25.795Z,91.90
2019-03-30T16:44:54.241Z,91.90
2019-03-30T16:47:22.691Z,92.20
2019-03-30T16:49:51.125Z,92.20
2019-03-30T16:52:19.496Z,92.30
2019-03-30T16:54:47.919Z,92.40
2019-03-30T16:57:16.394Z,92.50
2019-03-30T16:59:44.838Z,92.50
2019-03-30T17:02:13.228Z,92.50
2019-03-30T17:04:41.725Z,92.60
2019-03-30T17:07:10.136Z,92.70
2019-03-30T17:09:38.490Z,93.00
2019-03-30T17:12:06.869Z,92.60
2019-03-30T17:14:35.260Z,92.70
2019-03-30T17:17:03.626Z,92.50
2019-03-30T17:19:32.016Z,92.30
2019-03-30T17:22:00.465Z,92.20
2019-03-30T17:24:28.934Z,92.30
2019-03-30T17:26:57.305Z,92.50
2019-03-30T17:29:26.105Z,92.60
2019-03-30T17:31:54.528Z,92.70
2019-03-30T17:34:22.834Z,92.70
2019-03-30T17:36:51.229Z,92.90
2019-03-30T17:39:19.611Z,93.10
2019-03-30T17:41:47.993Z,93.00
2019-03-30T17:44:16.369Z,92.80
2019-03-30T17:46:44.791Z,92.70
2019-03-30T17:49:13.183Z,92.50
2019-03-30T17:51:41.553Z,92.50
2019-03-30T17:54:10.152Z,92.30
2019-03-30T17:56:38.554Z,92.30
2019-03-30T17:59:06.954Z,92.10
2019-03-30T18:01:35.350Z,91.90
2019-03-30T18:04:03.781Z,91.80
2019-03-30T18:06:32.289Z,91.80
2019-03-30T18:09:00.768Z,91.60
2019-03-30T18:11:29.243Z,91.40
2019-03-30T18:13:57.622Z,91.30
2019-03-30T18:16:26.042Z,91.30
2019-03-30T18:18:54.537Z,91.40
2019-03-30T18:21:22.865Z,91.50
2019-03-30T18:23:51.231Z,91.50
2019-03-30T18:26:20.221Z,91.40
2019-03-30T18:28:48.723Z,91.40
2019-03-30T18:31:17.240Z,91.40
2019-03-30T18:33:47.276Z,91.40
2019-03-30T18:36:16.314Z,91.50
2019-03-30T18:38:45.410Z,91.60
2019-03-30T18:41:13.823Z,91.70
2019-03-30T18:44:03.255Z,91.80
2019-03-30T18:46:31.663Z,91.90
2019-03-30T18:49:00.141Z,92.00
2019-03-30T18:51:28.625Z,92.10
2019-03-30T18:53:57.114Z,92.10
2019-03-30T18:56:28.060Z,92.00
2019-03-30T19:01:23.016Z,91.90
2019-03-30T19:03:51.357Z,92.10
2019-03-30T19:06:19.802Z,92.10
2019-03-30T19:08:48.444Z,92.10
2019-03-30T19:11:16.882Z,92.10
2019-03-30T19:13:46.486Z,92.10
2019-03-30T19:16:14.866Z,92.10
2019-03-30T19:18:43.202Z,92.20
2019-03-30T19:21:11.587Z,92.20
2019-03-30T19:23:40.083Z,92.20
2019-03-30T19:26:09.086Z,92.20
2019-03-30T19:28:37.555Z,92.30
2019-03-30T19:31:05.937Z,92.20
2019-03-30T19:33:34.369Z,92.30
2019-03-30T19:36:02.707Z,92.20
2019-03-30T19:38:31.081Z,92.10
2019-03-30T19:40:59.885Z,92.20
2019-03-30T19:43:28.291Z,92.10
2019-03-30T19:45:56.677Z,92.20
2019-03-30T19:48:25.057Z,92.40
2019-03-30T19:50:53.486Z,92.50
2019-03-30T19:53:21.857Z,92.70
2019-03-30T19:55:50.391Z,93.00
2019-03-30T19:58:18.755Z,93.50
2019-03-30T20:00:47.118Z,93.40
2019-03-30T20:03:15.590Z,93.50
2019-03-30T20:05:44.723Z,93.60
2019-03-30T20:08:13.264Z,93.70
2019-03-30T20:10:41.757Z,93.90
2019-03-30T20:13:10.214Z,94.10
2019-03-30T20:15:38.696Z,94.20
2019-03-30T20:18:07.071Z,94.40
2019-03-30T20:20:35.534Z,94.60
2019-03-30T20:23:03.852Z,94.80
2019-03-30T20:25:32.226Z,94.50
2019-03-30T20:28:00.616Z,94.70
2019-03-30T20:30:29.037Z,94.70
2019-03-30T20:32:57.542Z,94.80
2019-03-30T20:35:25.983Z,94.60
2019-03-30T20:37:54.496Z,94.20
2019-03-30T20:40:22.927Z,94.20
2019-03-30T20:42:51.283Z,93.80
2019-03-30T20:45:19.663Z,93.50
2019-03-30T20:47:48.033Z,93.10
2019-03-30T20:50:16.405Z,93.20
2019-03-30T20:52:44.797Z,93.40
2019-03-30T20:55:13.166Z,93.80
2019-03-30T20:57:41.561Z,93.50
2019-03-30T21:00:10.495Z,93.40
2019-03-30T21:02:39.167Z,93.10
2019-03-30T21:05:07.550Z,93.00
2019-03-30T21:07:35.862Z,92.70
2019-03-30T21:10:07.018Z,92.40
2019-03-30T21:12:35.387Z,92.10
2019-03-30T21:15:04.614Z,92.50
2019-03-30T21:17:33.072Z,91.80
2019-03-30T21:20:01.467Z,92.00
2019-03-30T21:22:29.861Z,92.00
2019-03-30T21:24:58.221Z,92.00
2019-03-30T21:27:26.611Z,92.00
2019-03-30T21:29:55.310Z,92.10
2019-03-30T21:32:23.685Z,92.00
2019-03-30T21:34:51.985Z,91.80
2019-03-30T21:37:20.443Z,91.20
2019-03-30T21:39:48.806Z,91.20
2019-03-30T21:42:17.951Z,91.30
2019-03-30T21:44:46.387Z,91.30
2019-03-30T21:47:14.778Z,91.50
2019-03-30T21:49:43.141Z,91.60
2019-03-30T21:52:11.537Z,91.80
2019-03-30T21:54:39.902Z,91.70
2019-03-30T21:57:08.226Z,91.80
2019-03-30T21:59:36.675Z,91.70
2019-03-30T22:02:05.126Z,91.60
2019-03-30T22:04:33.561Z,91.50
2019-03-30T22:07:01.969Z,91.30
2019-03-30T22:09:30.397Z,91.30
2019-03-30T22:11:58.793Z,91.80
2019-03-30T22:14:27.179Z,91.50
2019-03-30T22:16:55.624Z,91.30
2019-03-30T22:19:23.955Z,91.30
2019-03-30T22:21:53.174Z,91.40
2019-03-30T22:24:21.598Z,91.50
2019-03-30T22:26:49.966Z,91.40
2019-03-30T22:29:18.378Z,91.30
2019-03-30T22:31:46.738Z,91.50
2019-03-30T22:34:15.184Z,91.20
2019-03-30T22:36:43.600Z,91.20
2019-03-30T22:39:11.979Z,91.30
2019-03-30T22:41:40.358Z,91.60
2019-03-30T22:44:08.807Z,91.20
2019-03-30T22:46:37.223Z,91.50
2019-03-30T22:49:05.635Z,91.60
2019-03-30T22:51:34.023Z,91.50
2019-03-30T22:54:02.461Z,91.70
2019-03-30T22:56:30.925Z,91.70
2019-03-30T22:58:59.321Z,91.70
2019-03-30T23:01:27.727Z,91.60
2019-03-30T23:03:56.121Z,91.50
2019-03-30T23:06:24.501Z,91.50
2019-03-30T23:08:52.789Z,91.60
2019-03-30T23:11:21.176Z,91.60
2019-03-30T23:13:49.555Z,91.30
2019-03-30T23:16:17.940Z,91.30
2019-03-30T23:18:47.116Z,91.30
2019-03-30T23:21:15.478Z,91.00
2019-03-30T23:23:43.850Z,90.90
2019-03-30T23:26:12.255Z,90.80
2019-03-30T23:28:40.792Z,90.90
2019-03-30T23:31:09.080Z,90.80
2019-03-30T23:33:37.389Z,90.60
2019-03-30T23:36:05.963Z,90.40
2019-03-30T23:38:34.355Z,90.40
2019-03-30T23:41:02.708Z,90.40
2019-03-30T23:43:31.023Z,90.50
2019-03-30T23:45:59.377Z,90.40
2019-03-30T23:48:27.689Z,90.30
2019-03-30T23:50:56.070Z,90.30
2019-03-30T23:53:27.211Z,90.20
2019-03-30T23:55:55.587Z,90.10
2019-03-30T23:58:24.062Z,90.20
